sensor_id;sensor_type;location;lat;lon;timestamp;pressure;altitude;pressure_sealevel;temperature;humidity
51617;BME280;37697;52.588;13.394;2022-09-21T00:03:42;101904.65;;;5.75;80.77
51617;BME280;37697;52.588;13.394;2022-09-21T00:08:45;101910.63;;;5.72;80.79
51617;BME280;37697;52.588;13.394;2022-09-21T00:13:57;101912.77;;;5.70;80.85
51617;BME280;37697;52.588;13.394;2022-09-21T00:18:59;101913.48;;;5.65;80.80
51617;BME280;37697;52.588;13.394;2022-09-21T00:24:00;101911.70;;;5.59;80.85
51617;BME280;37697;52.588;13.394;2022-09-21T00:29:02;101914.09;;;5.56;80.88
51617;BME280;37697;52.588;13.394;2022-09-21T00:34:02;101911.86;;;5.53;81.01
51617;BME280;37697;52.588;13.394;2022-09-21T00:39:05;101913.12;;;5.47;81.05
51617;BME280;37697;52.588;13.394;2022-09-21T00:44:19;101921.24;;;5.45;81.08
51617;BME280;37697;52.588;13.394;2022-09-21T00:49:25;101914.61;;;5.41;81.11
51617;BME280;37697;52.588;13.394;2022-09-21T00:54:33;101920.00;;;5.38;81.24
51617;BME280;37697;52.588;13.394;2022-09-21T00:59:37;101922.14;;;5.36;81.29
51617;BME280;37697;52.588;13.394;2022-09-21T01:04:39;101921.55;;;5.34;81.40
51617;BME280;37697;52.588;13.394;2022-09-21T01:09:41;101925.06;;;5.32;81.34
51617;BME280;37697;52.588;13.394;2022-09-21T01:26:03;101933.34;;;5.23;81.48
51617;BME280;37697;52.588;13.394;2022-09-21T01:31:07;101927.98;;;5.16;81.45
51617;BME280;37697;52.588;13.394;2022-09-21T01:36:14;101933.92;;;5.13;81.54
51617;BME280;37697;52.588;13.394;2022-09-21T01:41:22;101941.21;;;5.10;81.54
51617;BME280;37697;52.588;13.394;2022-09-21T01:46:26;101939.21;;;5.05;81.56
51617;BME280;37697;52.588;13.394;2022-09-21T01:51:29;101936.95;;;5.02;81.57
51617;BME280;37697;52.588;13.394;2022-09-21T01:56:43;101935.53;;;5.00;81.61
51617;BME280;37697;52.588;13.394;2022-09-21T02:01:56;101931.91;;;4.97;81.61
51617;BME280;37697;52.588;13.394;2022-09-21T02:07:00;101935.09;;;4.93;81.67
51617;BME280;37697;52.588;13.394;2022-09-21T02:12:03;101938.61;;;4.91;81.69
51617;BME280;37697;52.588;13.394;2022-09-21T02:17:26;101937.70;;;4.88;81.69
51617;BME280;37697;52.588;13.394;2022-09-21T02:23:10;101940.92;;;4.85;81.61
51617;BME280;37697;52.588;13.394;2022-09-21T02:28:22;101933.97;;;4.80;81.79
51617;BME280;37697;52.588;13.394;2022-09-21T02:33:36;101938.81;;;4.78;81.73
51617;BME280;37697;52.588;13.394;2022-09-21T02:38:53;101940.59;;;4.72;81.75
51617;BME280;37697;52.588;13.394;2022-09-21T02:44:18;101942.41;;;4.69;81.79
51617;BME280;37697;52.588;13.394;2022-09-21T02:49:28;101950.55;;;4.67;81.75
51617;BME280;37697;52.588;13.394;2022-09-21T02:54:39;101946.05;;;4.61;81.74
51617;BME280;37697;52.588;13.394;2022-09-21T02:59:42;101950.37;;;4.59;81.95
51617;BME280;37697;52.588;13.394;2022-09-21T03:04:45;101950.59;;;4.58;81.93
51617;BME280;37697;52.588;13.394;2022-09-21T03:09:47;101952.11;;;4.53;81.89
51617;BME280;37697;52.588;13.394;2022-09-21T03:14:48;101960.92;;;4.55;82.20
51617;BME280;37697;52.588;13.394;2022-09-21T03:19:50;101964.23;;;4.58;82.45
51617;BME280;37697;52.588;13.394;2022-09-21T03:24:53;101969.06;;;4.65;82.75
51617;BME280;37697;52.588;13.394;2022-09-21T03:29:55;101964.92;;;4.74;83.16
51617;BME280;37697;52.588;13.394;2022-09-21T03:34:57;101963.73;;;4.82;83.39
51617;BME280;37697;52.588;13.394;2022-09-21T03:39:58;101974.63;;;4.91;83.60
51617;BME280;37697;52.588;13.394;2022-09-21T03:44:59;101970.67;;;4.96;83.61
51617;BME280;37697;52.588;13.394;2022-09-21T03:50:02;101976.72;;;4.98;83.62
51617;BME280;37697;52.588;13.394;2022-09-21T03:55:06;101969.66;;;5.00;83.53
51617;BME280;37697;52.588;13.394;2022-09-21T04:00:09;101975.36;;;4.98;83.53
51617;BME280;37697;52.588;13.394;2022-09-21T04:05:12;101979.69;;;4.97;83.42
51617;BME280;37697;52.588;13.394;2022-09-21T04:10:19;101974.77;;;4.96;83.46
51617;BME280;37697;52.588;13.394;2022-09-21T04:15:23;101979.86;;;4.92;83.45
51617;BME280;37697;52.588;13.394;2022-09-21T04:20:24;101988.05;;;4.92;83.48
51617;BME280;37697;52.588;13.394;2022-09-21T04:25:25;101988.56;;;4.92;83.51
51617;BME280;37697;52.588;13.394;2022-09-21T04:30:25;101985.78;;;4.89;83.45
51617;BME280;37697;52.588;13.394;2022-09-21T04:35:27;101986.56;;;4.87;83.50
51617;BME280;37697;52.588;13.394;2022-09-21T04:40:27;101985.66;;;4.84;83.47
51617;BME280;37697;52.588;13.394;2022-09-21T04:45:28;101979.37;;;4.84;83.53
51617;BME280;37697;52.588;13.394;2022-09-21T04:50:29;101986.66;;;4.81;83.44
51617;BME280;37697;52.588;13.394;2022-09-21T04:55:30;101984.11;;;4.77;83.39
51617;BME280;37697;52.588;13.394;2022-09-21T05:00:31;101988.20;;;4.77;83.57
51617;BME280;37697;52.588;13.394;2022-09-21T05:05:32;101994.48;;;4.77;83.75
51617;BME280;37697;52.588;13.394;2022-09-21T05:10:33;101994.48;;;4.77;83.75
51617;BME280;37697;52.588;13.394;2022-09-21T05:15:38;101997.98;;;4.75;83.64
51617;BME280;37697;52.588;13.394;2022-09-21T05:20:38;102006.77;;;4.77;83.73
51617;BME280;37697;52.588;13.394;2022-09-21T05:25:39;102011.14;;;4.78;83.76
51617;BME280;37697;52.588;13.394;2022-09-21T05:30:40;102021.60;;;4.81;83.83
51617;BME280;37697;52.588;13.394;2022-09-21T05:35:57;102025.83;;;4.86;84.03
51617;BME280;37697;52.588;13.394;2022-09-21T05:40:55;102029.87;;;4.96;84.24
51617;BME280;37697;52.588;13.394;2022-09-21T05:46:07;102035.33;;;5.05;84.37
51617;BME280;37697;52.588;13.394;2022-09-21T06:02:12;102033.34;;;5.47;85.75
51617;BME280;37697;52.588;13.394;2022-09-21T06:07:12;102038.39;;;5.65;86.02
51617;BME280;37697;52.588;13.394;2022-09-21T06:12:13;102041.56;;;5.85;86.41
51617;BME280;37697;52.588;13.394;2022-09-21T06:17:13;102039.23;;;6.03;86.75
51617;BME280;37697;52.588;13.394;2022-09-21T06:22:15;102046.52;;;6.24;87.23
51617;BME280;37697;52.588;13.394;2022-09-21T06:27:15;102049.84;;;6.40;87.35
51617;BME280;37697;52.588;13.394;2022-09-21T06:32:16;102046.94;;;6.59;87.49
51617;BME280;37697;52.588;13.394;2022-09-21T06:37:17;102056.61;;;6.78;87.87
51617;BME280;37697;52.588;13.394;2022-09-21T06:42:17;102059.11;;;6.97;87.99
51617;BME280;37697;52.588;13.394;2022-09-21T06:47:18;102063.02;;;7.15;88.12
51617;BME280;37697;52.588;13.394;2022-09-21T06:52:19;102060.31;;;7.35;88.44
51617;BME280;37697;52.588;13.394;2022-09-21T06:57:20;102062.27;;;7.54;88.51
51617;BME280;37697;52.588;13.394;2022-09-21T07:02:21;102058.97;;;7.71;88.58
51617;BME280;37697;52.588;13.394;2022-09-21T07:07:21;102060.04;;;7.90;88.48
51617;BME280;37697;52.588;13.394;2022-09-21T07:12:22;102067.38;;;8.06;88.51
51617;BME280;37697;52.588;13.394;2022-09-21T07:17:34;102071.48;;;8.26;88.68
51617;BME280;37697;52.588;13.394;2022-09-21T07:22:34;102065.70;;;8.44;88.41
51617;BME280;37697;52.588;13.394;2022-09-21T07:27:35;102071.65;;;8.61;88.48
51617;BME280;37697;52.588;13.394;2022-09-21T07:32:36;102076.26;;;8.80;88.45
51617;BME280;37697;52.588;13.394;2022-09-21T07:37:37;102078.00;;;8.91;88.35
51617;BME280;37697;52.588;13.394;2022-09-21T07:42:37;102074.59;;;9.06;88.45
51617;BME280;37697;52.588;13.394;2022-09-21T07:47:38;102074.44;;;9.18;88.36
51617;BME280;37697;52.588;13.394;2022-09-21T07:52:39;102086.88;;;9.28;88.43
51617;BME280;37697;52.588;13.394;2022-09-21T07:57:40;102080.13;;;9.43;88.64
51617;BME280;37697;52.588;13.394;2022-09-21T08:02:59;102086.06;;;9.65;88.65
51617;BME280;37697;52.588;13.394;2022-09-21T08:08:00;102079.59;;;9.84;88.49
51617;BME280;37697;52.588;13.394;2022-09-21T08:13:01;102081.92;;;10.02;88.66
51617;BME280;37697;52.588;13.394;2022-09-21T08:18:03;102085.02;;;10.19;88.50
51617;BME280;37697;52.588;13.394;2022-09-21T08:23:06;102090.31;;;10.31;88.00
51617;BME280;37697;52.588;13.394;2022-09-21T08:28:07;102094.25;;;10.48;88.24
51617;BME280;37697;52.588;13.394;2022-09-21T08:33:08;102097.34;;;10.59;87.93
51617;BME280;37697;52.588;13.394;2022-09-21T08:38:09;102095.46;;;10.75;88.01
51617;BME280;37697;52.588;13.394;2022-09-21T08:43:12;102098.52;;;10.94;88.02
51617;BME280;37697;52.588;13.394;2022-09-21T08:48:27;102094.98;;;11.14;88.24
51617;BME280;37697;52.588;13.394;2022-09-21T08:53:44;102099.13;;;11.24;87.42
51617;BME280;37697;52.588;13.394;2022-09-21T08:58:46;102102.97;;;11.31;87.51
51617;BME280;37697;52.588;13.394;2022-09-21T09:09:42;102106.56;;;11.72;87.54
51617;BME280;37697;52.588;13.394;2022-09-21T09:20:40;102106.24;;;12.12;86.78
51617;BME280;37697;52.588;13.394;2022-09-21T09:25:45;102091.83;;;12.28;87.23
51617;BME280;37697;52.588;13.394;2022-09-21T09:30:57;102105.22;;;12.61;87.11
51617;BME280;37697;52.588;13.394;2022-09-21T09:36:02;102102.30;;;12.89;86.73
51617;BME280;37697;52.588;13.394;2022-09-21T09:41:21;102102.89;;;13.23;86.72
51617;BME280;37697;52.588;13.394;2022-09-21T09:51:42;102101.98;;;13.70;85.06
51617;BME280;37697;52.588;13.394;2022-09-21T09:56:43;102096.36;;;14.04;84.33
51617;BME280;37697;52.588;13.394;2022-09-21T10:01:45;102097.13;;;14.34;84.40
51617;BME280;37697;52.588;13.394;2022-09-21T10:06:46;102090.73;;;14.60;83.51
51617;BME280;37697;52.588;13.394;2022-09-21T10:11:47;102092.69;;;14.97;82.65
51617;BME280;37697;52.588;13.394;2022-09-21T10:16:52;102096.69;;;15.27;82.10
51617;BME280;37697;52.588;13.394;2022-09-21T10:21:56;102093.64;;;15.26;80.39
51617;BME280;37697;52.588;13.394;2022-09-21T10:27:12;102091.68;;;15.26;78.99
51617;BME280;37697;52.588;13.394;2022-09-21T10:37:29;102088.95;;;15.07;78.12
51617;BME280;37697;52.588;13.394;2022-09-21T10:42:41;102079.33;;;15.19;77.46
51617;BME280;37697;52.588;13.394;2022-09-21T10:47:48;102084.63;;;15.50;76.89
51617;BME280;37697;52.588;13.394;2022-09-21T10:53:10;102072.69;;;15.66;76.57
51617;BME280;37697;52.588;13.394;2022-09-21T10:58:13;102077.64;;;15.69;75.65
51617;BME280;37697;52.588;13.394;2022-09-21T11:08:58;102059.08;;;16.11;73.83
51617;BME280;37697;52.588;13.394;2022-09-21T11:14:26;102071.98;;;15.91;72.70
51617;BME280;37697;52.588;13.394;2022-09-21T11:19:53;102064.47;;;15.78;73.28
51617;BME280;37697;52.588;13.394;2022-09-21T11:25:18;102068.61;;;15.61;72.77
51617;BME280;37697;52.588;13.394;2022-09-21T11:30:31;102069.63;;;15.51;72.80
51617;BME280;37697;52.588;13.394;2022-09-21T11:36:16;102070.66;;;15.88;73.38
51617;BME280;37697;52.588;13.394;2022-09-21T11:41:50;102069.51;;;16.45;72.22
51617;BME280;37697;52.588;13.394;2022-09-21T11:52:44;102063.35;;;16.20;70.97
51617;BME280;37697;52.588;13.394;2022-09-21T11:57:56;102060.00;;;16.07;70.55
51617;BME280;37697;52.588;13.394;2022-09-21T12:03:43;102064.55;;;15.86;69.59
51617;BME280;37697;52.588;13.394;2022-09-21T12:14:34;102052.62;;;15.86;70.33
51617;BME280;37697;52.588;13.394;2022-09-21T12:25:27;102042.77;;;16.85;69.31
51617;BME280;37697;52.588;13.394;2022-09-21T12:30:32;102039.87;;;16.77;67.90
51617;BME280;37697;52.588;13.394;2022-09-21T12:35:39;102036.89;;;16.48;67.72
51617;BME280;37697;52.588;13.394;2022-09-21T12:41:04;102041.02;;;16.11;67.35
51617;BME280;37697;52.588;13.394;2022-09-21T12:46:28;102037.21;;;15.80;67.78
51617;BME280;37697;52.588;13.394;2022-09-21T12:51:32;102032.42;;;15.66;67.93
51617;BME280;37697;52.588;13.394;2022-09-21T12:56:42;102035.47;;;15.67;68.30
51617;BME280;37697;52.588;13.394;2022-09-21T13:02:04;102026.14;;;16.05;68.76
51617;BME280;37697;52.588;13.394;2022-09-21T13:12:25;102008.63;;;16.57;67.27
51617;BME280;37697;52.588;13.394;2022-09-21T13:17:31;102007.04;;;16.76;67.11
51617;BME280;37697;52.588;13.394;2022-09-21T13:22:34;102011.77;;;16.90;65.62
51617;BME280;37697;52.588;13.394;2022-09-21T13:43:59;102010.36;;;16.78;64.35
51617;BME280;37697;52.588;13.394;2022-09-21T13:49:20;102000.23;;;16.82;64.38
51617;BME280;37697;52.588;13.394;2022-09-21T13:54:35;101997.57;;;16.77;63.98
51617;BME280;37697;52.588;13.394;2022-09-21T13:59:37;101994.50;;;16.90;64.19
51617;BME280;37697;52.588;13.394;2022-09-21T14:04:40;101984.95;;;16.94;63.71
51617;BME280;37697;52.588;13.394;2022-09-21T14:09:51;101988.69;;;17.00;63.89
51617;BME280;37697;52.588;13.394;2022-09-21T14:25:45;101980.55;;;16.67;62.76
51617;BME280;37697;52.588;13.394;2022-09-21T14:30:50;101979.30;;;16.62;62.99
51617;BME280;37697;52.588;13.394;2022-09-21T14:35:56;101974.48;;;16.54;61.94
51617;BME280;37697;52.588;13.394;2022-09-21T14:41:04;101977.95;;;16.48;61.46
51617;BME280;37697;52.588;13.394;2022-09-21T15:03:36;101961.27;;;16.23;61.65
51617;BME280;37697;52.588;13.394;2022-09-21T15:08:41;101960.67;;;16.13;61.58
51617;BME280;37697;52.588;13.394;2022-09-21T15:14:12;101961.36;;;16.07;61.02
51617;BME280;37697;52.588;13.394;2022-09-21T15:19:28;101956.79;;;16.00;60.97
51617;BME280;37697;52.588;13.394;2022-09-21T15:24:32;101953.41;;;15.89;60.72
51617;BME280;37697;52.588;13.394;2022-09-21T15:29:34;101945.18;;;15.84;61.15
51617;BME280;37697;52.588;13.394;2022-09-21T15:34:36;101955.31;;;15.77;61.08
51617;BME280;37697;52.588;13.394;2022-09-21T15:39:36;101944.55;;;15.73;61.34
51617;BME280;37697;52.588;13.394;2022-09-21T15:44:38;101944.03;;;15.71;61.41
51617;BME280;37697;52.588;13.394;2022-09-21T15:49:40;101948.87;;;15.65;61.27
51617;BME280;37697;52.588;13.394;2022-09-21T15:54:45;101947.69;;;15.55;60.97
51617;BME280;37697;52.588;13.394;2022-09-21T15:59:50;101953.67;;;15.46;61.08
51617;BME280;37697;52.588;13.394;2022-09-21T16:04:54;101953.22;;;15.41;61.17
51617;BME280;37697;52.588;13.394;2022-09-21T16:09:55;101953.31;;;15.36;61.31
51617;BME280;37697;52.588;13.394;2022-09-21T16:14:58;101956.55;;;15.27;61.22
51617;BME280;37697;52.588;13.394;2022-09-21T16:20:19;101961.70;;;15.17;61.09
51617;BME280;37697;52.588;13.394;2022-09-21T16:25:34;101964.44;;;15.03;61.45
51617;BME280;37697;52.588;13.394;2022-09-21T16:30:47;101965.56;;;14.86;61.39
51617;BME280;37697;52.588;13.394;2022-09-21T16:35:51;101973.28;;;14.72;61.83
51617;BME280;37697;52.588;13.394;2022-09-21T16:40:51;101971.83;;;14.58;62.18
51617;BME280;37697;52.588;13.394;2022-09-21T16:45:53;101974.02;;;14.40;62.42
51617;BME280;37697;52.588;13.394;2022-09-21T16:50:54;101975.56;;;14.27;62.88
51617;BME280;37697;52.588;13.394;2022-09-21T16:55:55;101980.49;;;14.11;63.21
51617;BME280;37697;52.588;13.394;2022-09-21T17:00:56;101973.28;;;13.91;63.72
51617;BME280;37697;52.588;13.394;2022-09-21T17:05:57;101976.56;;;13.72;64.16
51617;BME280;37697;52.588;13.394;2022-09-21T17:10:58;101984.83;;;13.50;64.63
51617;BME280;37697;52.588;13.394;2022-09-21T17:16:01;101983.89;;;13.31;64.96
51617;BME280;37697;52.588;13.394;2022-09-21T17:21:01;101985.70;;;13.11;65.29
51617;BME280;37697;52.588;13.394;2022-09-21T17:26:11;101991.95;;;12.93;65.71
51617;BME280;37697;52.588;13.394;2022-09-21T17:31:15;101993.73;;;12.76;66.05
51617;BME280;37697;52.588;13.394;2022-09-21T17:36:16;101989.71;;;12.58;66.32
51617;BME280;37697;52.588;13.394;2022-09-21T17:41:33;101992.31;;;12.41;66.60
51617;BME280;37697;52.588;13.394;2022-09-21T17:51:58;101996.08;;;12.06;67.13
51617;BME280;37697;52.588;13.394;2022-09-21T18:02:56;102003.37;;;11.68;67.71
51617;BME280;37697;52.588;13.394;2022-09-21T18:07:57;101996.77;;;11.51;68.03
51617;BME280;37697;52.588;13.394;2022-09-21T18:13:09;101997.08;;;11.37;68.31
51617;BME280;37697;52.588;13.394;2022-09-21T18:29:26;102022.72;;;10.94;68.83
51617;BME280;37697;52.588;13.394;2022-09-21T18:45:43;102018.25;;;10.47;69.45
51617;BME280;37697;52.588;13.394;2022-09-21T18:51:02;102025.37;;;10.35;69.65
51617;BME280;37697;52.588;13.394;2022-09-21T18:56:06;102034.09;;;10.21;69.76
51617;BME280;37697;52.588;13.394;2022-09-21T19:01:10;102026.05;;;10.07;70.06
51617;BME280;37697;52.588;13.394;2022-09-21T19:11:58;102033.64;;;9.82;70.47
51617;BME280;37697;52.588;13.394;2022-09-21T19:17:40;102028.62;;;9.71;70.71
51617;BME280;37697;52.588;13.394;2022-09-21T19:23:14;102042.02;;;9.57;70.84
51617;BME280;37697;52.588;13.394;2022-09-21T19:28:34;102032.83;;;9.44;71.03
51617;BME280;37697;52.588;13.394;2022-09-21T19:33:47;102037.98;;;9.33;71.33
51617;BME280;37697;52.588;13.394;2022-09-21T19:38:48;102039.27;;;9.22;71.50
51617;BME280;37697;52.588;13.394;2022-09-21T19:43:56;102043.91;;;9.17;71.69
51617;BME280;37697;52.588;13.394;2022-09-21T19:49:07;102040.81;;;9.08;71.81
51617;BME280;37697;52.588;13.394;2022-09-21T19:59:40;102044.22;;;8.90;71.91
51617;BME280;37697;52.588;13.394;2022-09-21T20:04:49;102046.34;;;8.81;72.05
51617;BME280;37697;52.588;13.394;2022-09-21T20:10:11;102045.97;;;8.72;72.25
51617;BME280;37697;52.588;13.394;2022-09-21T20:15:26;102043.42;;;8.65;72.36
51617;BME280;37697;52.588;13.394;2022-09-21T20:20:32;102045.50;;;8.56;72.45
51617;BME280;37697;52.588;13.394;2022-09-21T20:25:37;102050.61;;;8.44;72.56
51617;BME280;37697;52.588;13.394;2022-09-21T20:30:49;102051.88;;;8.37;72.82
51617;BME280;37697;52.588;13.394;2022-09-21T20:35:50;102052.88;;;8.30;72.94
51617;BME280;37697;52.588;13.394;2022-09-21T20:40:53;102057.19;;;8.24;73.11
51617;BME280;37697;52.588;13.394;2022-09-21T20:45:54;102048.62;;;8.20;73.40
51617;BME280;37697;52.588;13.394;2022-09-21T20:50:59;102050.53;;;8.17;73.64
51617;BME280;37697;52.588;13.394;2022-09-21T20:56:01;102052.68;;;8.15;73.91
51617;BME280;37697;52.588;13.394;2022-09-21T21:01:05;102048.31;;;8.16;74.09
51617;BME280;37697;52.588;13.394;2022-09-21T21:06:15;102047.19;;;8.15;74.37
51617;BME280;37697;52.588;13.394;2022-09-21T21:11:19;102052.73;;;8.18;74.58
51617;BME280;37697;52.588;13.394;2022-09-21T21:16:20;102034.14;;;8.03;74.87
51617;BME280;37697;52.588;13.394;2022-09-21T21:21:21;102034.14;;;8.03;74.87
51617;BME280;37697;52.588;13.394;2022-09-21T21:26:23;102055.66;;;8.11;74.93
51617;BME280;37697;52.588;13.394;2022-09-21T21:31:24;102062.50;;;8.08;75.08
51617;BME280;37697;52.588;13.394;2022-09-21T21:36:25;102064.87;;;8.02;75.20
51617;BME280;37697;52.588;13.394;2022-09-21T21:41:26;102062.11;;;8.00;75.42
51617;BME280;37697;52.588;13.394;2022-09-21T21:46:27;102060.45;;;8.01;75.70
51617;BME280;37697;52.588;13.394;2022-09-21T21:51:27;102058.26;;;8.01;75.86
51617;BME280;37697;52.588;13.394;2022-09-21T21:56:29;102052.27;;;8.04;76.07
51617;BME280;37697;52.588;13.394;2022-09-21T22:01:30;102055.84;;;8.04;76.16
51617;BME280;37697;52.588;13.394;2022-09-21T22:06:32;102053.14;;;8.07;76.47
51617;BME280;37697;52.588;13.394;2022-09-21T22:11:35;102048.78;;;8.08;76.56
51617;BME280;37697;52.588;13.394;2022-09-21T22:16:37;102041.11;;;8.10;76.72
51617;BME280;37697;52.588;13.394;2022-09-21T22:21:40;102042.48;;;8.10;76.79
51617;BME280;37697;52.588;13.394;2022-09-21T22:26:44;102049.59;;;8.09;76.96
51617;BME280;37697;52.588;13.394;2022-09-21T22:31:47;102050.40;;;8.07;77.09
51617;BME280;37697;52.588;13.394;2022-09-21T22:36:48;102047.66;;;8.07;77.31
51617;BME280;37697;52.588;13.394;2022-09-21T22:41:50;102046.86;;;8.09;77.44
51617;BME280;37697;52.588;13.394;2022-09-21T22:46:50;102053.73;;;8.11;77.49
51617;BME280;37697;52.588;13.394;2022-09-21T22:51:51;102052.91;;;8.11;77.52
51617;BME280;37697;52.588;13.394;2022-09-21T22:56:52;102060.33;;;8.10;77.68
51617;BME280;37697;52.588;13.394;2022-09-21T23:01:53;102061.64;;;8.08;77.64
51617;BME280;37697;52.588;13.394;2022-09-21T23:06:55;102060.00;;;8.07;77.70
51617;BME280;37697;52.588;13.394;2022-09-21T23:11:56;102054.72;;;8.03;77.63
51617;BME280;37697;52.588;13.394;2022-09-21T23:16:57;102046.47;;;8.00;77.79
51617;BME280;37697;52.588;13.394;2022-09-21T23:21:58;102046.97;;;7.97;77.87
51617;BME280;37697;52.588;13.394;2022-09-21T23:26:59;102051.06;;;7.94;77.92
51617;BME280;37697;52.588;13.394;2022-09-21T23:32:00;102049.06;;;7.90;77.89
51617;BME280;37697;52.588;13.394;2022-09-21T23:37:01;102042.44;;;7.86;77.90
51617;BME280;37697;52.588;13.394;2022-09-21T23:42:01;102047.84;;;7.81;77.89
51617;BME280;37697;52.588;13.394;2022-09-21T23:47:02;102049.14;;;7.75;77.97
51617;BME280;37697;52.588;13.394;2022-09-21T23:52:03;102049.39;;;7.74;78.08
51617;BME280;37697;52.588;13.394;2022-09-21T23:57:04;102043.58;;;7.70;78.12
